Terminal Aerodrome Forecast
Issued by NWS Albany, NY

Home | Current Version | Previous Version | Text Only | Print | Product List | Glossary On
Versions: 1 2 3 4 5 6 7 8 9 10 11 12 13 14 15 16 17
951
FTUS41 KALY 180538
TAFPOU
TAF
KPOU 180538Z 1806/1906 00000KT 2SM -RA BR SCT008 OVC015
      TEMPO 1808/1812 5SM BR BKN008 OVC015
     FM181200 VRB03KT 4SM BR VCSH BKN008 OVC015
     FM181600 35004KT 4SM BR VCSH OVC015=

USA.gov is the U.S. government's official web portal to all federal, state and local government web resources and services.